Terminal Aerodrome Forecast
Issued by NWS

Home | Current Version | Previous Version | Text Only | Print | Product List | Glossary On
Versions: 1 2 3 4 5 6 7 8 9 10 11 12 13 14 15 16 17 18 19 20 21 22 23 24 25 26 27 28
051
FTUS43 KDDC 072033 AAG
TAFHYS
TAF AMD
KHYS 072033Z 0721/0818 02012KT P6SM OVC018
     FM072200 01012G22KT P6SM BKN040
     FM080000 34009KT P6SM BKN080=

USA.gov is the U.S. government's official web portal to all federal, state and local government web resources and services.